Ottawa Macdonald-Cartier International Airport

CYOW · Ontario, Canadá

História da METAR CYOW · Aeroporto Internacional Ottawa Macdonald-Cartier

Abaixo você vê METARs dos últimos dias. Selecione um ano para navegar pelos METARs mais antigos, a partir do ano 2007.

4 de dezembro de 2022

Hora Código Clima Temp. Visibilidade Tecto Vento METAR/SPECI
01:00
V
-3 °C 15 mi - 280° 280° 12 - 20 kt SPECI CYOW 040600Z 28012G20KT 15SM FEW049 M03/M09 A3012 RMK SC1 SLP205
01:00
V
-3 °C 15 mi - 280° 280° 12 - 20 kt METAR CYOW 040600Z 28012G20KT 15SM FEW049 M03/M09 A3012 RMK SC1 SLP205
00:00
V
-2 °C 15 mi 4.900 ft 290° 290° 15 - 20 kt METAR CYOW 040500Z 29015G20KT 15SM BKN049 M02/M08 A3010 RMK SC7 SLP199

3 de dezembro de 2022

Hora Código Clima Temp. Visibilidade Tecto Vento METAR/SPECI
23:00
V
-1 °C 15 mi 4.000 ft 280° 280° 21 kt METAR CYOW 040400Z 28021KT 15SM SCT030 OVC040 M01/M08 A3008 RMK SC3SC5 PRESRR SLP194
22:24
V
0 °C 15 mi 3.200 ft 290° 290° 16 - 26 kt METAR CYOW 040324Z 29016G26KT 15SM VCSH OVC032 M00/M07 A3006 RMK SC8 SH N QUAD SLP184
22:00
V
0 °C 15 mi 3.200 ft 300° 300° 20 - 25 kt METAR CYOW 040300Z 30020G25KT 15SM -SHSN BKN032 OVC040 M00/M06 A3005 RMK SC6SC2 CVCTV CLDS EMBD SLP182
21:00
V
1 °C 15 mi 3.200 ft 270° 270° 19 - 25 kt METAR CYOW 040200Z 27019G25KT 15SM OVC032 01/M06 A3001 RMK SC8 SLP170
20:00
M
2 °C 15 mi 2.900 ft 280° 280° 20 - 30 kt METAR CYOW 040100Z 28020G30KT 15SM BKN029 02/M04 A2997 RMK SC7 SLP156
19:30
V
2 °C 15 mi 3.000 ft 270° 270° 21 - 29 kt METAR CYOW 040030Z 27021G29KT 15SM OVC030 02/M03 A2995 RMK SC8 PRESRR SLP148
19:00
M
4 °C 15 mi 2.800 ft 270° 270° 16 - 25 kt METAR CYOW 040000Z 27016G25KT 15SM BKN028 OVC040 04/M01 A2991 RMK SC7SC1 PRESRR SLP135
18:00
V
4 °C 15 mi 4.700 ft 270° 270° 17 - 32 kt METAR CYOW 032300Z 27017G32KT 15SM FEW027 BKN047 04/M00 A2985 RMK SC2SC4 PRESRR SLP115
17:54
V
4 °C 15 mi 4.600 ft 260° 260° 19 - 27 kt METAR CYOW 032254Z 26019G27KT 15SM -RA SCT028 OVC046 04/M00 A2985 RMK SC3SC5 PRESRR SLP113
17:00
V
4 °C 15 mi 7.300 ft 260° 260° 16 - 26 kt METAR CYOW 032200Z 26016G26KT 15SM FEW046 BKN073 04/00 A2980 RMK SC2AC4 SLP096
16:00
V
5 °C 15 mi 7.000 ft 260° 260° 21 - 37 kt METAR CYOW 032100Z 26021G37KT 15SM SCT027 OVC070 05/01 A2973 RMK SC3AC5 PRESRR SLP072
15:22
M
6 °C 15 mi 2.000 ft 250° 250° 26 - 34 kt METAR CYOW 032022Z 25026G34KT 15SM BKN020 OVC060 06/03 A2966 RMK SC6SC2 PRESRR SLP049
15:00
V
7 °C 12 mi 3.300 ft 260° 260° 29 - 41 kt METAR CYOW 032000Z 26029G41KT 12SM -RA BKN033 07/04 A2961 RMK SC7 PRESRR SLP032
14:49
M
8 °C 15 mi 2.000 ft 240° 240° 24 - 30 kt METAR CYOW 031949Z 24024G30KT 15SM BKN020 OVC050 08/05 A2958 RMK SC6SC2 PRESRR SLP023
14:23
V
8 °C 10 mi 5.000 ft 260° 260° 22 - 29 kt METAR CYOW 031923Z 26022G29KT 10SM -RA OVC050 08/06 A2955 RMK SC8 SLP011
14:00
M
9 °C 5 mi 1.200 ft 210° 210° 20 - 30 kt METAR CYOW 031900Z 21020G30KT 5SM -RA BR OVC012 09/08 A2953 RMK SC8 PRESRR SLP006
13:00
M
8 °C 5 mi 1.200 ft 190° 190° 15 - 23 kt METAR CYOW 031800Z 19015G23KT 5SM -RA BR OVC012 08/07 A2953 RMK SC8 SLP006
12:54
M
8 °C 6 mi 1.200 ft 190° 190° 14 - 24 kt METAR CYOW 031754Z 19014G24KT 6SM -RA BR OVC012 08/07 A2954 RMK SC8 SLP007
12:00
M
8 °C 15 mi 1.200 ft 180° 180° 15 - 21 kt METAR CYOW 031700Z 18015G21KT 15SM OVC012 08/06 A2958 RMK SC8 PRESFR SLP021
11:00
M
7 °C 15 mi 1.600 ft 200° 200° 11 - 19 kt METAR CYOW 031600Z 20011G19KT 15SM OVC016 07/05 A2965 RMK SC8 SLP046
10:00
M
7 °C 15 mi 1.700 ft 190° 190° 15 - 23 kt METAR CYOW 031500Z 19015G23KT 15SM OVC017 07/04 A2969 RMK SC8 SLP058
09:00
M
6 °C 15 mi 1.500 ft 190° 190° 14 - 25 kt METAR CYOW 031400Z 19014G25KT 15SM OVC015 06/03 A2972 RMK SC8 SLP069
08:00
M
7 °C 15 mi 2.200 ft 190° 190° 14 - 23 kt METAR CYOW 031300Z 19014G23KT 15SM OVC022 07/01 A2974 RMK SC8 SLP076
07:00
V
5 °C 15 mi 5.000 ft 170° 170° 10 - 16 kt METAR CYOW 031200Z 17010G16KT 15SM SCT033 OVC050 05/M00 A2977 RMK SC4SC4 SLP088
06:00
V
5 °C 15 mi 3.800 ft 180° 180° 10 - 19 kt METAR CYOW 031100Z 18010G19KT 15SM OVC038 05/M01 A2979 RMK SC8 SLP094
05:00
V
5 °C 15 mi 5.000 ft 160° 160° 10 - 15 kt METAR CYOW 031000Z 16010G15KT 15SM OVC050 05/M02 A2981 RMK SC8 SLP102
04:00
V
5 °C 15 mi 4.700 ft 170° 170° 10 kt METAR CYOW 030900Z 17010KT 15SM OVC047 05/M03 A2985 RMK SC8 PRESFR SLP114
03:35
V
4 °C 15 mi 5.500 ft 150° 150° 10 kt METAR CYOW 030835Z 15010KT 15SM -RA OVC055 04/M03 A2987 RMK SC8 PRESFR SLP123
03:20
V
3 °C 15 mi 5.700 ft 150° 150° 7 kt METAR CYOW 030820Z 15007KT 15SM OVC057 03/M02 A2989 RMK SC8 SLP128
03:00
V
3 °C 15 mi 6.000 ft 130° 130° 6 kt METAR CYOW 030800Z 13006KT 15SM -RA OVC060 03/M02 A2990 RMK SC8 SLP133
02:53
V
3 °C 15 mi 6.600 ft 140° 140° 5 kt METAR CYOW 030753Z 14005KT 15SM -RA OVC066 03/M03 A2991 RMK AC8 SLP136
02:19
V
3 °C 15 mi 9.000 ft 150° 150° 7 kt METAR CYOW 030719Z 15007KT 15SM FEW070 OVC090 03/M03 A2993 RMK AC1AC7 SLP143
02:00
V
3 °C 15 mi 9.400 ft 140° 140° 8 kt METAR CYOW 030700Z 14008KT 15SM -RA BKN094 OVC130 03/M03 A2993 RMK AC7AC1 SLP143
01:51
V
3 °C 15 mi 10.000 ft 140° 140° 9 kt METAR CYOW 030651Z 14009KT 15SM -RA BKN100 OVC130 03/M03 A2994 RMK AC7AC1 SLP145
01:00
V
3 °C 15 mi 11.000 ft 150° 150° 5 kt METAR CYOW 030600Z 15005KT 15SM OVC110 03/M02 A2998 RMK AC8 SLP159
00:00
V
3 °C 15 mi 10.000 ft 150° 150° 5 kt METAR CYOW 030500Z 15005KT 15SM BKN100 BKN130 OVC230 03/M03 A3000 RMK AC5AC2CI1 SLP167

2 de dezembro de 2022

Hora Código Clima Temp. Visibilidade Tecto Vento METAR/SPECI
23:00
V
2 °C 15 mi 14.000 ft 120° 120° 10 kt METAR CYOW 030400Z 12010KT 15SM FEW090 BKN140 OVC230 02/M02 A3000 RMK AC2AC4CI2 PRESFR SLP167
22:00
V
2 °C 15 mi 8.500 ft 140° 140° 8 kt METAR CYOW 030300Z 14008KT 15SM FEW064 OVC085 02/M02 A3006 RMK SC2AC6 SLP186
21:25
V
3 °C 10 mi 6.500 ft 130° 130° 9 kt METAR CYOW 030225Z 13009KT 10SM -RA OVC065 03/M04 A3007 RMK SC8 PRESFR SLP191
21:00
V
3 °C 15 mi 7.500 ft 140° 140° 8 kt METAR CYOW 030200Z 14008KT 15SM OVC075 03/M04 A3008 RMK AC8 SLP194
20:26
V
2 °C 15 mi 8.000 ft 120° 120° 9 kt METAR CYOW 030126Z 12009KT 15SM OVC080 02/M04 A3010 RMK AC8 PRESFR SLP200
20:09
V
2 °C 15 mi 7.500 ft 130° 130° 8 kt METAR CYOW 030109Z 13008KT 15SM -SHRA OVC075 02/M04 A3012 RMK AC8 CVCTV CLD EMBD PRESFR SLP207
20:00
V
2 °C 15 mi 7.300 ft 130° 130° 9 kt METAR CYOW 030100Z 13009KT 15SM OVC073 02/M05 A3012 RMK AC8 SLP209
19:00
V
2 °C 15 mi 8.500 ft 140° 140° 9 kt METAR CYOW 030000Z 14009KT 15SM FEW060 BKN085 02/M05 A3015 RMK SC2AC5 SLP219
18:00
V
2 °C 15 mi 8.300 ft 130° 130° 9 kt METAR CYOW 022300Z 13009KT 15SM OVC083 02/M04 A3018 RMK AC8 SLP226
17:00
V
1 °C 15 mi 8.000 ft 120° 120° 8 kt METAR CYOW 022200Z 12008KT 15SM BKN080 01/M04 A3021 RMK AC7 SLP236
16:00
V
2 °C 15 mi 8.500 ft 130° 130° 7 kt METAR CYOW 022100Z 13007KT 15SM BKN085 02/M04 A3021 RMK AC7 SLP238
15:00
V
2 °C 15 mi 8.000 ft 150° 150° 11 kt METAR CYOW 022000Z 15011KT 15SM BKN080 02/M05 A3023 RMK AC7 SLP245
14:00
V
2 °C 15 mi 8.000 ft 170° 170° 8 - 15 kt METAR CYOW 021900Z 17008G15KT 15SM FEW025 BKN080 02/M04 A3024 RMK SC1AC7 SC TR SLP250
13:00
V
2 °C 15 mi 9.300 ft 180° 180° 11 kt METAR CYOW 021800Z 18011KT 15SM FEW024 BKN093 02/M04 A3028 RMK SC2AC5 SLP261
12:00
M
2 °C 15 mi 2.100 ft 170° 170° 10 - 16 kt METAR CYOW 021700Z 17010G16KT 15SM BKN021 BKN120 02/M03 A3031 RMK SC6AC1 SLP271
11:00
M
2 °C 15 mi 2.400 ft 190° 190° 8 kt METAR CYOW 021600Z 19008KT 15SM BKN024 BKN120 02/M03 A3034 RMK SC6AC1 SLP281
10:00
V
1 °C 15 mi 23.000 ft 190° 190° 8 - 15 kt METAR CYOW 021500Z 19008G15KT 15SM FEW026 SCT120 BKN230 01/M03 A3035 RMK SC1AC3CI1 SLP286
09:00
V
0 °C 15 mi 16.000 ft 180° 180° 8 kt METAR CYOW 021400Z 18008KT 15SM FEW120 BKN160 BKN230 M00/M04 A3036 RMK AC2AC3CI1 SLP288
08:00
V
-1 °C 15 mi 16.000 ft 190° 190° 4 kt METAR CYOW 021300Z 19004KT 15SM FEW120 BKN160 BKN230 M01/M04 A3037 RMK AC2AC4CI1 SLP292
07:00
V
-2 °C 15 mi 17.000 ft 190° 190° 5 kt METAR CYOW 021200Z 19005KT 15SM FEW037 SCT100 BKN170 M02/M04 A3037 RMK SC2AC1AC4 SLP293
06:32
V
-2 °C 15 mi 10.000 ft 200° 200° 5 kt METAR CYOW 021132Z 20005KT 15SM SCT040 BKN100 M02/M04 A3037 RMK SC4AC3 SLP294
06:00
V
-2 °C 15 mi 4.000 ft 200° 200° 4 kt METAR CYOW 021100Z 20004KT 15SM -SN BKN040 M02/M04 A3038 RMK SC7 SLP295
05:00
V
-2 °C 15 mi 3.800 ft 200° 200° 3 kt METAR CYOW 021000Z 20003KT 15SM FEW025 OVC038 M02/M04 A3038 RMK SC2SC6 SLP295
04:00
M
-3 °C 15 mi 2.200 ft 170° 170° 4 kt METAR CYOW 020900Z 17004KT 15SM BKN022 BKN042 M03/M05 A3036 RMK SC6SC1 SLP290
03:00
V
-3 °C 15 mi 4.300 ft 170° 170° 3 kt METAR CYOW 020800Z 17003KT 15SM BKN043 BKN090 BKN160 M03/M06 A3037 RMK SC5AC1AC1 SLP293
02:00
V
-3 °C 15 mi 16.000 ft 180° 180° 3 kt METAR CYOW 020700Z 18003KT 15SM FEW130 OVC160 M03/M06 A3036 RMK AC1AC7 SLP290
01:00
V
-4 °C 15 mi 13.000 ft 200° 200° 4 kt METAR CYOW 020600Z 20004KT 15SM BKN130 M04/M07 A3037 RMK AC5 SLP293
00:00
V
-3 °C 15 mi - 230° 230° 4 kt METAR CYOW 020500Z 23004KT 15SM SKC M03/M07 A3036 RMK SLP288

1 de dezembro de 2022

Hora Código Clima Temp. Visibilidade Tecto Vento METAR/SPECI
23:00
V
-3 °C 15 mi - 200° 200° 4 kt METAR CYOW 020400Z 20004KT 15SM FEW150 FEW220 M03/M07 A3034 RMK AC1CI1 AC TR SLP282
22:00
V
-3 °C 15 mi 22.000 ft 250° 250° 3 kt METAR CYOW 020300Z 25003KT 15SM FEW150 BKN220 M03/M07 A3034 RMK AC1CI4 SLP282
21:00
V
-3 °C 15 mi - 250° 250° 5 kt METAR CYOW 020200Z 25005KT 15SM SCT130 SCT230 M03/M08 A3033 RMK AC3CI1 CI TR SLP278
20:00
V
-2 °C 15 mi - 240° 240° 4 kt METAR CYOW 020100Z 24004KT 15SM SCT230 M02/M07 A3032 RMK CI3 SLP274
19:00
V
-2 °C 15 mi - 270° 270° 5 kt METAR CYOW 020000Z 27005KT 15SM FEW230 M02/M08 A3030 RMK CI1 CI TR SLP269
18:00
V
-2 °C 15 mi - 270° 270° 7 kt METAR CYOW 012300Z 27007KT 15SM FEW050 FEW230 M02/M08 A3028 RMK SC1CI1 SC TR CI TR SLP261
17:00
V
0 °C 15 mi - 280° 280° 10 kt METAR CYOW 012200Z 28010KT 15SM FEW050 FEW230 M00/M08 A3024 RMK SC1CI1 CI TR SLP248
16:00
V
1 °C 15 mi - 270° 270° 11 - 17 kt METAR CYOW 012100Z 27011G17KT 15SM SCT045 01/M08 A3020 RMK SC3 PRESRR SLP235
15:00
V
1 °C 15 mi - 270° 270° 16 - 25 kt METAR CYOW 012000Z 27016G25KT 15SM SCT040 01/M08 A3015 RMK SC4 PRESRR SLP219
14:00
V
1 °C 15 mi 4.000 ft 290° 290° 20 - 28 kt METAR CYOW 011900Z 29020G28KT 15SM BKN040 01/M08 A3012 RMK SC7 CU ASCOTD PRESRR SLP207
13:00
V
1 °C 15 mi 3.800 ft 270° 270° 18 - 24 kt METAR CYOW 011800Z 27018G24KT 15SM BKN038 BKN050 01/M07 A3009 RMK CU5SC2 SH DIST NW-E SLP197
12:32
V
1 °C 15 mi 3.800 ft 280° 280° 15 - 25 kt METAR CYOW 011732Z 28015G25KT 15SM BKN038 BKN055 01/M07 A3008 RMK CU5SC2 SH DIST N QUAD SLP195
12:00
V
1 °C 15 mi 5.500 ft 280° 280° 19 - 28 kt METAR CYOW 011700Z 28019G28KT 15SM SCT038 BKN055 01/M07 A3007 RMK CU4SC3 OCNL -SHSN PRESRR SLP190
11:52
V
0 °C 15 mi 5.500 ft 270° 270° 22 - 28 kt METAR CYOW 011652Z 27022G28KT 15SM -SHSN SCT037 BKN055 00/M07 A3006 RMK CU4SC3 SLP187
11:00
V
1 °C 15 mi 5.000 ft 270° 270° 20 - 29 kt METAR CYOW 011600Z 27020G29KT 15SM FEW011 FEW035 BKN050 01/M07 A3003 RMK SC1CU1SC4 SH DIST ALQDS SLP177
10:21
V
0 °C 15 mi 5.500 ft 290° 290° 24 - 34 kt METAR CYOW 011521Z 29024G34KT 15SM FEW011 SCT035 BKN055 M00/M08 A3001 RMK SC2CU2SC3 SLP168
10:00
V
0 °C 15 mi 3.500 ft 270° 270° 21 - 27 kt METAR CYOW 011500Z 27021G27KT 15SM -SHSN FEW011 BKN035 BKN055 M00/M07 A2998 RMK SC2CU3SC2 PRESRR SLP161
09:20
V
-1 °C 10 mi 3.500 ft 280° 280° 15 - 20 kt METAR CYOW 011420Z 28015G20KT 10SM -SHSN FEW013 BKN035 BKN050 M01/M04 A2996 RMK SC1SC5SC1 VIS E QUAD 4 CVCTV CLD EMBD SLP152
09:08
I
-2 °C 2 mi 4.000 ft 300° 300° 14 - 29 kt METAR CYOW 011408Z 30014G29KT 2SM R07/4000VP6000FT/D R32/3500VP6000FT/D -SHSN SCT013 BKN040 M02/M04 A2995 RMK SN3SC1SC3 VIS N QUAD 15 CVTCV CLD EMBD PRESRR SLP148
09:00
L
-1 °C ½ mi 1.000 ft 270° 270° 21 - 29 kt METAR CYOW 011400Z 27021G29KT 1/2SM R07/P6000FT/U R32/5500VP6000FT/D SHSN VV010 M01/M05 A2994 RMK SN8 PRESRR SLP146
08:08
V
-1 °C 15 mi 3.400 ft 260° 260° 11 kt METAR CYOW 011308Z 26011KT 15SM -SHSN BKN034 BKN050 M01/M05 A2989 RMK SC5SC2 CU EMBD SLP127
08:00
V
-1 °C 15 mi 3.400 ft 250° 250° 10 - 15 kt METAR CYOW 011300Z 25010G15KT 15SM BKN034 BKN050 M01/M04 A2988 RMK SC5SC2 SH DIST NW-E CU EMBD SLP124
07:00
V
-1 °C 15 mi 4.500 ft 230° 230° 12 - 24 kt METAR CYOW 011200Z 23012G24KT 15SM BKN045 M01/M04 A2982 RMK SC7 PCPN DIST N QUAD SLP106
06:00
V
-1 °C 15 mi 8.000 ft 230° 230° 13 - 24 kt METAR CYOW 011100Z 23013G24KT 15SM SCT035 BKN080 M01/M05 A2980 RMK SC3AC2 SH N SLP097
05:00
V
-1 °C 15 mi 3.800 ft 240° 240° 13 - 28 kt METAR CYOW 011000Z 24013G28KT 15SM VCSH BKN038 BKN080 M01/M06 A2977 RMK SC6AC1 SH VIS LWR N SLP088

Nós e terceiros acompanhamos seu comportamento na internet em nosso site com cookies. Se você continuar, nós assumimos que você concorda com nosso política de cookies.